sensor_id;sensor_type;location;lat;lon;timestamp;P1;durP1;ratioP1;P2;durP2;ratioP2
23129;SDS011;11734;51.046;13.778;2023-12-20T00:01:08;3.77;;;3.37;;
23129;SDS011;11734;51.046;13.778;2023-12-20T00:03:36;3.90;;;3.50;;
23129;SDS011;11734;51.046;13.778;2023-12-20T00:06:08;3.17;;;2.87;;
23129;SDS011;11734;51.046;13.778;2023-12-20T00:08:36;4.00;;;3.60;;
23129;SDS011;11734;51.046;13.778;2023-12-20T00:11:03;6.10;;;3.90;;
23129;SDS011;11734;51.046;13.778;2023-12-20T00:13:31;3.50;;;3.20;;
23129;SDS011;11734;51.046;13.778;2023-12-20T00:15:58;3.60;;;3.27;;
23129;SDS011;11734;51.046;13.778;2023-12-20T00:18:26;3.90;;;3.50;;
23129;SDS011;11734;51.046;13.778;2023-12-20T00:20:53;3.60;;;3.30;;
23129;SDS011;11734;51.046;13.778;2023-12-20T00:23:20;3.93;;;3.40;;
23129;SDS011;11734;51.046;13.778;2023-12-20T00:25:49;3.63;;;3.20;;
23129;SDS011;11734;51.046;13.778;2023-12-20T00:28:16;3.63;;;2.97;;
23129;SDS011;11734;51.046;13.778;2023-12-20T00:30:44;3.97;;;3.20;;
23129;SDS011;11734;51.046;13.778;2023-12-20T00:33:11;2.93;;;2.63;;
23129;SDS011;11734;51.046;13.778;2023-12-20T00:35:39;4.40;;;3.33;;
23129;SDS011;11734;51.046;13.778;2023-12-20T00:38:06;4.10;;;3.27;;
23129;SDS011;11734;51.046;13.778;2023-12-20T00:40:35;4.30;;;3.40;;
23129;SDS011;11734;51.046;13.778;2023-12-20T00:43:02;2.83;;;2.57;;
23129;SDS011;11734;51.046;13.778;2023-12-20T00:45:29;2.70;;;2.50;;
23129;SDS011;11734;51.046;13.778;2023-12-20T00:47:57;3.10;;;2.70;;
23129;SDS011;11734;51.046;13.778;2023-12-20T00:50:25;2.80;;;2.50;;
23129;SDS011;11734;51.046;13.778;2023-12-20T00:52:55;3.70;;;2.80;;
23129;SDS011;11734;51.046;13.778;2023-12-20T00:55:23;2.60;;;2.40;;
23129;SDS011;11734;51.046;13.778;2023-12-20T00:57:50;2.67;;;2.40;;
23129;SDS011;11734;51.046;13.778;2023-12-20T01:00:18;3.13;;;2.77;;
23129;SDS011;11734;51.046;13.778;2023-12-20T01:02:46;3.00;;;2.50;;
23129;SDS011;11734;51.046;13.778;2023-12-20T01:05:16;2.47;;;2.27;;
23129;SDS011;11734;51.046;13.778;2023-12-20T01:07:44;2.47;;;2.23;;
23129;SDS011;11734;51.046;13.778;2023-12-20T01:10:11;2.40;;;2.10;;
23129;SDS011;11734;51.046;13.778;2023-12-20T01:12:39;2.67;;;2.40;;
23129;SDS011;11734;51.046;13.778;2023-12-20T01:15:06;2.27;;;2.07;;
23129;SDS011;11734;51.046;13.778;2023-12-20T01:17:33;2.07;;;1.87;;
23129;SDS011;11734;51.046;13.778;2023-12-20T01:20:01;2.40;;;2.20;;
23129;SDS011;11734;51.046;13.778;2023-12-20T01:22:28;2.33;;;2.13;;
23129;SDS011;11734;51.046;13.778;2023-12-20T01:24:55;2.40;;;2.20;;
23129;SDS011;11734;51.046;13.778;2023-12-20T01:27:23;2.27;;;2.07;;
23129;SDS011;11734;51.046;13.778;2023-12-20T01:29:50;2.17;;;1.97;;
23129;SDS011;11734;51.046;13.778;2023-12-20T01:32:18;2.33;;;2.13;;
23129;SDS011;11734;51.046;13.778;2023-12-20T01:34:45;2.00;;;1.90;;
23129;SDS011;11734;51.046;13.778;2023-12-20T01:37:14;2.20;;;2.00;;
23129;SDS011;11734;51.046;13.778;2023-12-20T01:39:42;2.20;;;2.00;;
23129;SDS011;11734;51.046;13.778;2023-12-20T01:42:10;2.03;;;1.70;;
23129;SDS011;11734;51.046;13.778;2023-12-20T01:44:37;2.10;;;2.00;;
23129;SDS011;11734;51.046;13.778;2023-12-20T01:47:04;2.60;;;1.90;;
23129;SDS011;11734;51.046;13.778;2023-12-20T01:49:32;2.30;;;2.10;;
23129;SDS011;11734;51.046;13.778;2023-12-20T01:52:00;2.10;;;1.90;;
23129;SDS011;11734;51.046;13.778;2023-12-20T01:54:27;1.93;;;1.80;;
23129;SDS011;11734;51.046;13.778;2023-12-20T01:56:54;2.00;;;1.80;;
23129;SDS011;11734;51.046;13.778;2023-12-20T01:59:22;2.03;;;1.87;;
23129;SDS011;11734;51.046;13.778;2023-12-20T02:01:50;2.13;;;1.93;;
23129;SDS011;11734;51.046;13.778;2023-12-20T02:04:17;2.40;;;2.20;;
23129;SDS011;11734;51.046;13.778;2023-12-20T02:06:45;2.00;;;1.70;;
23129;SDS011;11734;51.046;13.778;2023-12-20T02:09:14;1.70;;;1.60;;
23129;SDS011;11734;51.046;13.778;2023-12-20T02:11:42;1.50;;;1.40;;
23129;SDS011;11734;51.046;13.778;2023-12-20T02:14:10;2.13;;;1.93;;
23129;SDS011;11734;51.046;13.778;2023-12-20T02:16:37;1.70;;;1.60;;
23129;SDS011;11734;51.046;13.778;2023-12-20T02:19:05;1.50;;;1.37;;
23129;SDS011;11734;51.046;13.778;2023-12-20T02:21:36;1.93;;;1.73;;
23129;SDS011;11734;51.046;13.778;2023-12-20T02:24:04;1.40;;;1.30;;
23129;SDS011;11734;51.046;13.778;2023-12-20T02:26:34;1.50;;;1.40;;
23129;SDS011;11734;51.046;13.778;2023-12-20T02:29:01;1.20;;;1.10;;
23129;SDS011;11734;51.046;13.778;2023-12-20T02:31:29;1.53;;;1.43;;
23129;SDS011;11734;51.046;13.778;2023-12-20T02:33:56;1.60;;;1.50;;
23129;SDS011;11734;51.046;13.778;2023-12-20T02:36:24;1.50;;;1.40;;
23129;SDS011;11734;51.046;13.778;2023-12-20T02:38:51;1.40;;;1.30;;
23129;SDS011;11734;51.046;13.778;2023-12-20T02:41:19;1.50;;;1.40;;
23129;SDS011;11734;51.046;13.778;2023-12-20T02:43:46;1.60;;;1.50;;
23129;SDS011;11734;51.046;13.778;2023-12-20T02:46:13;1.37;;;1.27;;
23129;SDS011;11734;51.046;13.778;2023-12-20T02:48:41;1.40;;;1.20;;
23129;SDS011;11734;51.046;13.778;2023-12-20T02:51:09;1.40;;;1.30;;
23129;SDS011;11734;51.046;13.778;2023-12-20T02:53:36;1.43;;;1.30;;
23129;SDS011;11734;51.046;13.778;2023-12-20T02:56:04;1.23;;;1.17;;
23129;SDS011;11734;51.046;13.778;2023-12-20T02:58:31;1.50;;;1.40;;
23129;SDS011;11734;51.046;13.778;2023-12-20T03:00:59;1.80;;;1.17;;
23129;SDS011;11734;51.046;13.778;2023-12-20T03:03:27;1.50;;;1.40;;
23129;SDS011;11734;51.046;13.778;2023-12-20T03:05:55;1.20;;;1.20;;
23129;SDS011;11734;51.046;13.778;2023-12-20T03:08:22;1.40;;;1.30;;
23129;SDS011;11734;51.046;13.778;2023-12-20T03:10:51;1.50;;;1.40;;
23129;SDS011;11734;51.046;13.778;2023-12-20T03:13:20;1.30;;;1.20;;
23129;SDS011;11734;51.046;13.778;2023-12-20T03:15:47;1.40;;;1.30;;
23129;SDS011;11734;51.046;13.778;2023-12-20T03:18:14;1.40;;;1.30;;
23129;SDS011;11734;51.046;13.778;2023-12-20T03:20:42;1.10;;;1.10;;
23129;SDS011;11734;51.046;13.778;2023-12-20T03:23:10;1.60;;;1.50;;
23129;SDS011;11734;51.046;13.778;2023-12-20T03:25:38;1.50;;;1.10;;
23129;SDS011;11734;51.046;13.778;2023-12-20T03:28:05;1.23;;;1.13;;
23129;SDS011;11734;51.046;13.778;2023-12-20T03:30:32;1.30;;;1.20;;
23129;SDS011;11734;51.046;13.778;2023-12-20T03:33:00;1.50;;;1.30;;
23129;SDS011;11734;51.046;13.778;2023-12-20T03:35:27;1.20;;;1.10;;
23129;SDS011;11734;51.046;13.778;2023-12-20T03:37:54;1.40;;;1.30;;
23129;SDS011;11734;51.046;13.778;2023-12-20T03:40:23;1.00;;;1.00;;
23129;SDS011;11734;51.046;13.778;2023-12-20T03:42:51;1.30;;;1.20;;
23129;SDS011;11734;51.046;13.778;2023-12-20T03:45:20;0.93;;;0.83;;
23129;SDS011;11734;51.046;13.778;2023-12-20T03:47:47;1.07;;;0.97;;
23129;SDS011;11734;51.046;13.778;2023-12-20T03:50:16;1.23;;;1.13;;
23129;SDS011;11734;51.046;13.778;2023-12-20T03:52:43;1.37;;;1.27;;
23129;SDS011;11734;51.046;13.778;2023-12-20T03:55:12;1.10;;;1.10;;
23129;SDS011;11734;51.046;13.778;2023-12-20T03:57:40;1.20;;;1.10;;
23129;SDS011;11734;51.046;13.778;2023-12-20T04:00:08;1.20;;;1.10;;
23129;SDS011;11734;51.046;13.778;2023-12-20T04:02:38;1.23;;;1.23;;
23129;SDS011;11734;51.046;13.778;2023-12-20T04:05:06;1.20;;;1.10;;
23129;SDS011;11734;51.046;13.778;2023-12-20T04:07:34;1.23;;;1.13;;
23129;SDS011;11734;51.046;13.778;2023-12-20T04:10:02;1.30;;;1.20;;
23129;SDS011;11734;51.046;13.778;2023-12-20T04:12:33;1.10;;;1.10;;
23129;SDS011;11734;51.046;13.778;2023-12-20T04:15:00;0.93;;;0.90;;
23129;SDS011;11734;51.046;13.778;2023-12-20T04:17:28;1.20;;;1.10;;
23129;SDS011;11734;51.046;13.778;2023-12-20T04:19:55;1.03;;;1.00;;
23129;SDS011;11734;51.046;13.778;2023-12-20T04:22:23;1.20;;;1.07;;
23129;SDS011;11734;51.046;13.778;2023-12-20T04:24:50;1.00;;;1.00;;
23129;SDS011;11734;51.046;13.778;2023-12-20T04:27:17;1.27;;;1.23;;
23129;SDS011;11734;51.046;13.778;2023-12-20T04:29:45;1.00;;;1.00;;
23129;SDS011;11734;51.046;13.778;2023-12-20T04:32:12;1.23;;;1.10;;
23129;SDS011;11734;51.046;13.778;2023-12-20T04:34:39;1.10;;;1.10;;
23129;SDS011;11734;51.046;13.778;2023-12-20T04:37:08;1.20;;;1.10;;
23129;SDS011;11734;51.046;13.778;2023-12-20T04:39:35;1.20;;;1.10;;
23129;SDS011;11734;51.046;13.778;2023-12-20T04:42:03;1.00;;;1.00;;
23129;SDS011;11734;51.046;13.778;2023-12-20T04:44:30;1.07;;;1.07;;
23129;SDS011;11734;51.046;13.778;2023-12-20T04:46:57;1.37;;;1.27;;
23129;SDS011;11734;51.046;13.778;2023-12-20T04:49:25;1.23;;;1.00;;
23129;SDS011;11734;51.046;13.778;2023-12-20T04:51:52;1.20;;;1.20;;
23129;SDS011;11734;51.046;13.778;2023-12-20T04:54:20;1.33;;;1.23;;
23129;SDS011;11734;51.046;13.778;2023-12-20T04:56:47;1.40;;;1.30;;
23129;SDS011;11734;51.046;13.778;2023-12-20T04:59:14;1.20;;;1.20;;
23129;SDS011;11734;51.046;13.778;2023-12-20T05:01:42;1.60;;;1.50;;
23129;SDS011;11734;51.046;13.778;2023-12-20T05:04:09;1.20;;;1.10;;
23129;SDS011;11734;51.046;13.778;2023-12-20T05:06:36;1.40;;;1.23;;
23129;SDS011;11734;51.046;13.778;2023-12-20T05:09:04;1.10;;;1.10;;
23129;SDS011;11734;51.046;13.778;2023-12-20T05:11:31;1.30;;;1.30;;
23129;SDS011;11734;51.046;13.778;2023-12-20T05:13:59;1.47;;;1.37;;
23129;SDS011;11734;51.046;13.778;2023-12-20T05:16:26;1.03;;;1.03;;
23129;SDS011;11734;51.046;13.778;2023-12-20T05:18:53;1.13;;;1.10;;
23129;SDS011;11734;51.046;13.778;2023-12-20T05:21:21;1.40;;;1.30;;
23129;SDS011;11734;51.046;13.778;2023-12-20T05:23:48;1.17;;;1.17;;
23129;SDS011;11734;51.046;13.778;2023-12-20T05:26:15;1.40;;;1.30;;
23129;SDS011;11734;51.046;13.778;2023-12-20T05:28:43;2.63;;;1.70;;
23129;SDS011;11734;51.046;13.778;2023-12-20T05:31:10;1.20;;;1.10;;
23129;SDS011;11734;51.046;13.778;2023-12-20T05:33:37;1.43;;;1.33;;
23129;SDS011;11734;51.046;13.778;2023-12-20T05:36:05;1.80;;;1.53;;
23129;SDS011;11734;51.046;13.778;2023-12-20T05:38:37;1.67;;;1.10;;
23129;SDS011;11734;51.046;13.778;2023-12-20T05:41:04;1.30;;;1.20;;
23129;SDS011;11734;51.046;13.778;2023-12-20T05:43:32;1.30;;;1.20;;
23129;SDS011;11734;51.046;13.778;2023-12-20T05:45:59;1.27;;;1.17;;
23129;SDS011;11734;51.046;13.778;2023-12-20T05:48:26;1.00;;;1.00;;
23129;SDS011;11734;51.046;13.778;2023-12-20T05:50:54;1.10;;;1.10;;
23129;SDS011;11734;51.046;13.778;2023-12-20T05:53:21;1.37;;;1.27;;
23129;SDS011;11734;51.046;13.778;2023-12-20T05:55:48;1.50;;;1.40;;
23129;SDS011;11734;51.046;13.778;2023-12-20T05:58:16;1.23;;;1.13;;
23129;SDS011;11734;51.046;13.778;2023-12-20T06:00:43;1.03;;;1.03;;
23129;SDS011;11734;51.046;13.778;2023-12-20T06:03:11;1.60;;;1.13;;
23129;SDS011;11734;51.046;13.778;2023-12-20T06:05:38;1.13;;;1.03;;
23129;SDS011;11734;51.046;13.778;2023-12-20T06:08:06;1.20;;;1.07;;
23129;SDS011;11734;51.046;13.778;2023-12-20T06:10:33;1.40;;;1.30;;
23129;SDS011;11734;51.046;13.778;2023-12-20T06:13:00;2.70;;;1.30;;
23129;SDS011;11734;51.046;13.778;2023-12-20T06:15:28;1.43;;;1.33;;
23129;SDS011;11734;51.046;13.778;2023-12-20T06:17:55;2.03;;;1.30;;
23129;SDS011;11734;51.046;13.778;2023-12-20T06:20:22;1.43;;;1.33;;
23129;SDS011;11734;51.046;13.778;2023-12-20T06:22:50;1.50;;;1.40;;
23129;SDS011;11734;51.046;13.778;2023-12-20T06:25:17;4.37;;;3.20;;
23129;SDS011;11734;51.046;13.778;2023-12-20T06:27:44;1.57;;;1.47;;
23129;SDS011;11734;51.046;13.778;2023-12-20T06:30:12;3.37;;;3.07;;
23129;SDS011;11734;51.046;13.778;2023-12-20T06:32:40;1.60;;;1.50;;
23129;SDS011;11734;51.046;13.778;2023-12-20T06:35:08;1.60;;;1.50;;
23129;SDS011;11734;51.046;13.778;2023-12-20T06:37:36;1.70;;;1.60;;
23129;SDS011;11734;51.046;13.778;2023-12-20T06:40:03;2.00;;;1.80;;
23129;SDS011;11734;51.046;13.778;2023-12-20T06:42:31;1.97;;;1.77;;
23129;SDS011;11734;51.046;13.778;2023-12-20T06:45:08;1.77;;;1.67;;
23129;SDS011;11734;51.046;13.778;2023-12-20T06:47:36;2.13;;;1.93;;
23129;SDS011;11734;51.046;13.778;2023-12-20T06:50:03;2.00;;;1.90;;
23129;SDS011;11734;51.046;13.778;2023-12-20T06:52:31;2.60;;;1.97;;
23129;SDS011;11734;51.046;13.778;2023-12-20T06:54:58;2.00;;;1.80;;
23129;SDS011;11734;51.046;13.778;2023-12-20T06:57:26;2.30;;;2.10;;
23129;SDS011;11734;51.046;13.778;2023-12-20T06:59:53;2.40;;;2.20;;
23129;SDS011;11734;51.046;13.778;2023-12-20T07:02:20;2.10;;;2.00;;
23129;SDS011;11734;51.046;13.778;2023-12-20T07:04:48;3.37;;;2.13;;
23129;SDS011;11734;51.046;13.778;2023-12-20T07:07:16;2.30;;;2.10;;
23129;SDS011;11734;51.046;13.778;2023-12-20T07:09:43;4.03;;;3.00;;
23129;SDS011;11734;51.046;13.778;2023-12-20T07:12:11;2.43;;;2.23;;
23129;SDS011;11734;51.046;13.778;2023-12-20T07:14:38;3.13;;;2.30;;
23129;SDS011;11734;51.046;13.778;2023-12-20T07:17:06;3.30;;;2.30;;
23129;SDS011;11734;51.046;13.778;2023-12-20T07:19:37;3.10;;;2.80;;
23129;SDS011;11734;51.046;13.778;2023-12-20T07:22:08;3.27;;;2.97;;
23129;SDS011;11734;51.046;13.778;2023-12-20T07:24:35;2.83;;;2.63;;
23129;SDS011;11734;51.046;13.778;2023-12-20T07:27:02;3.20;;;2.90;;
23129;SDS011;11734;51.046;13.778;2023-12-20T07:29:30;2.80;;;2.60;;
23129;SDS011;11734;51.046;13.778;2023-12-20T07:31:57;3.10;;;2.80;;
23129;SDS011;11734;51.046;13.778;2023-12-20T07:34:25;3.17;;;2.87;;
23129;SDS011;11734;51.046;13.778;2023-12-20T07:36:55;3.10;;;2.83;;
23129;SDS011;11734;51.046;13.778;2023-12-20T07:39:22;2.87;;;2.60;;
23129;SDS011;11734;51.046;13.778;2023-12-20T07:41:49;3.00;;;2.70;;
23129;SDS011;11734;51.046;13.778;2023-12-20T07:44:17;3.07;;;2.77;;
23129;SDS011;11734;51.046;13.778;2023-12-20T07:46:44;3.47;;;3.03;;
23129;SDS011;11734;51.046;13.778;2023-12-20T07:49:13;3.53;;;3.03;;
23129;SDS011;11734;51.046;13.778;2023-12-20T07:51:40;3.13;;;2.93;;
23129;SDS011;11734;51.046;13.778;2023-12-20T07:54:08;3.30;;;3.00;;
23129;SDS011;11734;51.046;13.778;2023-12-20T07:56:35;3.43;;;3.13;;
23129;SDS011;11734;51.046;13.778;2023-12-20T07:59:02;4.20;;;3.40;;
23129;SDS011;11734;51.046;13.778;2023-12-20T08:01:31;3.20;;;2.90;;
23129;SDS011;11734;51.046;13.778;2023-12-20T08:03:59;4.87;;;3.10;;
23129;SDS011;11734;51.046;13.778;2023-12-20T08:06:26;3.03;;;2.73;;
23129;SDS011;11734;51.046;13.778;2023-12-20T08:08:54;3.23;;;2.97;;
23129;SDS011;11734;51.046;13.778;2023-12-20T08:11:31;3.03;;;2.73;;
23129;SDS011;11734;51.046;13.778;2023-12-20T08:13:59;3.33;;;2.30;;
23129;SDS011;11734;51.046;13.778;2023-12-20T08:16:26;4.83;;;2.53;;
23129;SDS011;11734;51.046;13.778;2023-12-20T08:18:54;3.30;;;2.37;;
23129;SDS011;11734;51.046;13.778;2023-12-20T08:21:21;2.97;;;2.70;;
23129;SDS011;11734;51.046;13.778;2023-12-20T08:23:49;3.70;;;2.30;;
23129;SDS011;11734;51.046;13.778;2023-12-20T08:26:18;2.20;;;2.10;;
23129;SDS011;11734;51.046;13.778;2023-12-20T08:28:47;2.40;;;2.00;;
23129;SDS011;11734;51.046;13.778;2023-12-20T08:31:14;2.50;;;2.30;;
23129;SDS011;11734;51.046;13.778;2023-12-20T08:33:46;2.40;;;2.20;;
23129;SDS011;11734;51.046;13.778;2023-12-20T08:36:13;2.53;;;2.10;;
23129;SDS011;11734;51.046;13.778;2023-12-20T08:38:41;2.53;;;2.33;;
23129;SDS011;11734;51.046;13.778;2023-12-20T08:41:08;2.10;;;1.90;;
23129;SDS011;11734;51.046;13.778;2023-12-20T08:43:35;2.50;;;1.77;;
23129;SDS011;11734;51.046;13.778;2023-12-20T08:46:03;3.40;;;2.00;;
23129;SDS011;11734;51.046;13.778;2023-12-20T08:48:30;2.70;;;2.23;;
23129;SDS011;11734;51.046;13.778;2023-12-20T08:50:57;4.00;;;1.87;;
23129;SDS011;11734;51.046;13.778;2023-12-20T08:53:25;2.17;;;1.97;;
23129;SDS011;11734;51.046;13.778;2023-12-20T08:55:53;2.17;;;1.93;;
23129;SDS011;11734;51.046;13.778;2023-12-20T08:58:20;2.17;;;1.73;;
23129;SDS011;11734;51.046;13.778;2023-12-20T09:00:48;2.77;;;1.90;;
23129;SDS011;11734;51.046;13.778;2023-12-20T09:03:15;2.53;;;1.93;;
23129;SDS011;11734;51.046;13.778;2023-12-20T09:05:42;2.17;;;1.90;;
23129;SDS011;11734;51.046;13.778;2023-12-20T09:08:10;1.67;;;1.50;;
23129;SDS011;11734;51.046;13.778;2023-12-20T09:10:37;4.90;;;1.50;;
23129;SDS011;11734;51.046;13.778;2023-12-20T09:13:04;1.97;;;1.73;;
23129;SDS011;11734;51.046;13.778;2023-12-20T09:15:32;1.90;;;1.37;;
23129;SDS011;11734;51.046;13.778;2023-12-20T09:18:02;1.80;;;1.47;;
23129;SDS011;11734;51.046;13.778;2023-12-20T09:20:30;2.57;;;1.33;;
23129;SDS011;11734;51.046;13.778;2023-12-20T09:22:58;4.07;;;1.53;;
23129;SDS011;11734;51.046;13.778;2023-12-20T09:25:26;3.73;;;1.60;;
23129;SDS011;11734;51.046;13.778;2023-12-20T09:27:53;1.60;;;1.30;;
23129;SDS011;11734;51.046;13.778;2023-12-20T09:30:21;1.60;;;1.50;;
23129;SDS011;11734;51.046;13.778;2023-12-20T09:32:56;2.17;;;1.60;;
23129;SDS011;11734;51.046;13.778;2023-12-20T09:35:23;2.93;;;1.20;;
23129;SDS011;11734;51.046;13.778;2023-12-20T09:37:53;2.13;;;1.60;;
23129;SDS011;11734;51.046;13.778;2023-12-20T09:40:20;3.50;;;1.57;;
23129;SDS011;11734;51.046;13.778;2023-12-20T09:42:48;2.40;;;1.50;;
23129;SDS011;11734;51.046;13.778;2023-12-20T09:45:19;2.53;;;1.40;;
23129;SDS011;11734;51.046;13.778;2023-12-20T09:47:54;3.20;;;1.80;;
23129;SDS011;11734;51.046;13.778;2023-12-20T09:50:21;2.20;;;1.80;;
23129;SDS011;11734;51.046;13.778;2023-12-20T09:52:50;1.53;;;1.43;;
23129;SDS011;11734;51.046;13.778;2023-12-20T09:55:18;2.20;;;1.70;;
23129;SDS011;11734;51.046;13.778;2023-12-20T09:57:47;2.50;;;1.50;;
23129;SDS011;11734;51.046;13.778;2023-12-20T10:00:15;1.90;;;1.50;;
23129;SDS011;11734;51.046;13.778;2023-12-20T10:02:50;2.40;;;1.63;;
23129;SDS011;11734;51.046;13.778;2023-12-20T10:05:18;2.60;;;2.17;;
23129;SDS011;11734;51.046;13.778;2023-12-20T10:07:46;2.77;;;1.50;;
23129;SDS011;11734;51.046;13.778;2023-12-20T10:10:14;1.57;;;1.47;;
23129;SDS011;11734;51.046;13.778;2023-12-20T10:12:46;2.37;;;1.40;;
23129;SDS011;11734;51.046;13.778;2023-12-20T10:15:27;3.10;;;1.80;;
23129;SDS011;11734;51.046;13.778;2023-12-20T10:17:55;3.27;;;1.90;;
23129;SDS011;11734;51.046;13.778;2023-12-20T10:20:28;2.80;;;1.60;;
23129;SDS011;11734;51.046;13.778;2023-12-20T10:22:56;1.80;;;1.70;;
23129;SDS011;11734;51.046;13.778;2023-12-20T10:25:24;3.57;;;1.63;;
23129;SDS011;11734;51.046;13.778;2023-12-20T10:30:39;3.83;;;1.70;;
23129;SDS011;11734;51.046;13.778;2023-12-20T10:33:07;2.20;;;1.77;;
23129;SDS011;11734;51.046;13.778;2023-12-20T10:35:35;3.13;;;1.80;;
23129;SDS011;11734;51.046;13.778;2023-12-20T10:38:03;3.33;;;1.50;;
23129;SDS011;11734;51.046;13.778;2023-12-20T10:40:35;1.57;;;1.43;;
23129;SDS011;11734;51.046;13.778;2023-12-20T10:43:04;4.57;;;1.67;;
23129;SDS011;11734;51.046;13.778;2023-12-20T10:45:32;1.77;;;1.63;;
23129;SDS011;11734;51.046;13.778;2023-12-20T10:47:59;2.33;;;1.53;;
23129;SDS011;11734;51.046;13.778;2023-12-20T10:50:28;3.43;;;1.63;;
23129;SDS011;11734;51.046;13.778;2023-12-20T10:52:57;1.43;;;1.30;;
23129;SDS011;11734;51.046;13.778;2023-12-20T10:55:25;2.87;;;1.70;;
23129;SDS011;11734;51.046;13.778;2023-12-20T10:57:54;2.90;;;1.60;;
23129;SDS011;11734;51.046;13.778;2023-12-20T11:00:28;3.87;;;1.60;;
23129;SDS011;11734;51.046;13.778;2023-12-20T11:03:00;2.13;;;1.57;;
23129;SDS011;11734;51.046;13.778;2023-12-20T11:08:15;4.77;;;1.90;;
23129;SDS011;11734;51.046;13.778;2023-12-20T11:11:04;2.50;;;1.80;;
23129;SDS011;11734;51.046;13.778;2023-12-20T11:13:34;2.63;;;1.50;;
23129;SDS011;11734;51.046;13.778;2023-12-20T11:16:03;2.37;;;1.60;;
23129;SDS011;11734;51.046;13.778;2023-12-20T11:18:30;2.23;;;1.87;;
23129;SDS011;11734;51.046;13.778;2023-12-20T11:21:02;2.00;;;1.53;;
23129;SDS011;11734;51.046;13.778;2023-12-20T11:23:30;4.63;;;1.80;;
23129;SDS011;11734;51.046;13.778;2023-12-20T11:25:59;3.80;;;1.87;;
23129;SDS011;11734;51.046;13.778;2023-12-20T11:28:26;3.00;;;1.63;;
23129;SDS011;11734;51.046;13.778;2023-12-20T11:30:57;3.33;;;1.80;;
23129;SDS011;11734;51.046;13.778;2023-12-20T11:35:56;2.27;;;1.73;;
23129;SDS011;11734;51.046;13.778;2023-12-20T11:38:23;3.50;;;1.80;;
23129;SDS011;11734;51.046;13.778;2023-12-20T11:40:53;2.03;;;1.83;;
23129;SDS011;11734;51.046;13.778;2023-12-20T11:43:30;3.57;;;1.90;;
23129;SDS011;11734;51.046;13.778;2023-12-20T11:46:08;4.17;;;1.90;;
23129;SDS011;11734;51.046;13.778;2023-12-20T11:48:39;2.70;;;1.57;;
23129;SDS011;11734;51.046;13.778;2023-12-20T11:51:12;1.60;;;1.50;;
23129;SDS011;11734;51.046;13.778;2023-12-20T11:53:40;2.90;;;2.07;;
23129;SDS011;11734;51.046;13.778;2023-12-20T11:56:10;1.70;;;1.60;;
23129;SDS011;11734;51.046;13.778;2023-12-20T11:58:39;1.87;;;1.70;;
23129;SDS011;11734;51.046;13.778;2023-12-20T12:01:07;3.33;;;2.10;;
23129;SDS011;11734;51.046;13.778;2023-12-20T12:03:35;3.30;;;1.80;;
23129;SDS011;11734;51.046;13.778;2023-12-20T12:06:02;5.23;;;1.97;;
23129;SDS011;11734;51.046;13.778;2023-12-20T12:08:31;3.40;;;1.70;;
23129;SDS011;11734;51.046;13.778;2023-12-20T12:10:59;4.07;;;1.80;;
23129;SDS011;11734;51.046;13.778;2023-12-20T12:13:26;2.43;;;1.50;;
23129;SDS011;11734;51.046;13.778;2023-12-20T12:15:54;2.47;;;1.50;;
23129;SDS011;11734;51.046;13.778;2023-12-20T12:18:21;2.33;;;1.40;;
23129;SDS011;11734;51.046;13.778;2023-12-20T12:20:49;4.53;;;2.20;;
23129;SDS011;11734;51.046;13.778;2023-12-20T12:23:22;4.17;;;1.73;;
23129;SDS011;11734;51.046;13.778;2023-12-20T12:25:51;2.20;;;2.00;;
23129;SDS011;11734;51.046;13.778;2023-12-20T12:28:18;2.43;;;1.50;;
23129;SDS011;11734;51.046;13.778;2023-12-20T12:30:58;1.77;;;1.30;;
23129;SDS011;11734;51.046;13.778;2023-12-20T12:33:26;2.53;;;1.27;;
23129;SDS011;11734;51.046;13.778;2023-12-20T12:35:54;1.93;;;1.27;;
23129;SDS011;11734;51.046;13.778;2023-12-20T12:38:22;2.90;;;1.50;;
23129;SDS011;11734;51.046;13.778;2023-12-20T12:40:51;4.77;;;1.50;;
23129;SDS011;11734;51.046;13.778;2023-12-20T12:43:20;1.63;;;1.47;;
23129;SDS011;11734;51.046;13.778;2023-12-20T12:45:49;3.40;;;1.60;;
23129;SDS011;11734;51.046;13.778;2023-12-20T12:48:16;2.10;;;1.60;;
23129;SDS011;11734;51.046;13.778;2023-12-20T12:50:45;2.93;;;1.60;;
23129;SDS011;11734;51.046;13.778;2023-12-20T12:53:12;3.10;;;1.80;;
23129;SDS011;11734;51.046;13.778;2023-12-20T12:55:40;2.37;;;1.37;;
23129;SDS011;11734;51.046;13.778;2023-12-20T12:58:07;2.53;;;2.00;;
23129;SDS011;11734;51.046;13.778;2023-12-20T13:00:34;3.23;;;1.83;;
23129;SDS011;11734;51.046;13.778;2023-12-20T13:03:02;3.10;;;1.70;;
23129;SDS011;11734;51.046;13.778;2023-12-20T13:05:30;2.30;;;1.57;;
23129;SDS011;11734;51.046;13.778;2023-12-20T13:08:04;3.73;;;1.83;;
23129;SDS011;11734;51.046;13.778;2023-12-20T13:10:31;3.17;;;1.60;;
23129;SDS011;11734;51.046;13.778;2023-12-20T13:12:59;2.73;;;1.80;;
23129;SDS011;11734;51.046;13.778;2023-12-20T13:15:26;3.17;;;1.70;;
23129;SDS011;11734;51.046;13.778;2023-12-20T13:17:53;2.67;;;1.60;;
23129;SDS011;11734;51.046;13.778;2023-12-20T13:20:21;2.00;;;1.80;;
23129;SDS011;11734;51.046;13.778;2023-12-20T13:22:48;3.10;;;1.80;;
23129;SDS011;11734;51.046;13.778;2023-12-20T13:25:16;2.43;;;1.80;;
23129;SDS011;11734;51.046;13.778;2023-12-20T13:27:43;2.97;;;1.50;;
23129;SDS011;11734;51.046;13.778;2023-12-20T13:30:11;3.27;;;1.60;;
23129;SDS011;11734;51.046;13.778;2023-12-20T13:32:39;2.83;;;1.60;;
23129;SDS011;11734;51.046;13.778;2023-12-20T13:35:06;2.90;;;1.83;;
23129;SDS011;11734;51.046;13.778;2023-12-20T13:37:34;1.90;;;1.60;;
23129;SDS011;11734;51.046;13.778;2023-12-20T13:40:01;5.97;;;1.80;;
23129;SDS011;11734;51.046;13.778;2023-12-20T13:42:30;2.70;;;1.93;;
23129;SDS011;11734;51.046;13.778;2023-12-20T13:44:58;1.67;;;1.53;;
23129;SDS011;11734;51.046;13.778;2023-12-20T13:47:25;2.00;;;1.77;;
23129;SDS011;11734;51.046;13.778;2023-12-20T13:49:52;5.80;;;1.80;;
23129;SDS011;11734;51.046;13.778;2023-12-20T13:52:20;3.10;;;1.67;;
23129;SDS011;11734;51.046;13.778;2023-12-20T13:54:47;3.07;;;1.77;;
23129;SDS011;11734;51.046;13.778;2023-12-20T13:57:15;3.73;;;1.90;;
23129;SDS011;11734;51.046;13.778;2023-12-20T13:59:46;4.80;;;2.10;;
23129;SDS011;11734;51.046;13.778;2023-12-20T14:02:14;3.27;;;1.90;;
23129;SDS011;11734;51.046;13.778;2023-12-20T14:04:42;3.93;;;2.13;;
23129;SDS011;11734;51.046;13.778;2023-12-20T14:07:10;1.80;;;1.50;;
23129;SDS011;11734;51.046;13.778;2023-12-20T14:09:39;4.17;;;1.60;;
23129;SDS011;11734;51.046;13.778;2023-12-20T14:12:12;2.43;;;1.47;;
23129;SDS011;11734;51.046;13.778;2023-12-20T14:14:40;2.87;;;1.73;;
23129;SDS011;11734;51.046;13.778;2023-12-20T14:17:07;2.67;;;1.70;;
23129;SDS011;11734;51.046;13.778;2023-12-20T14:19:35;1.60;;;1.50;;
23129;SDS011;11734;51.046;13.778;2023-12-20T14:22:03;2.60;;;1.77;;
23129;SDS011;11734;51.046;13.778;2023-12-20T14:24:31;3.10;;;1.57;;
23129;SDS011;11734;51.046;13.778;2023-12-20T14:26:58;4.63;;;1.60;;
23129;SDS011;11734;51.046;13.778;2023-12-20T14:29:26;3.93;;;2.00;;
23129;SDS011;11734;51.046;13.778;2023-12-20T14:31:53;2.13;;;1.30;;
23129;SDS011;11734;51.046;13.778;2023-12-20T14:34:21;1.60;;;1.50;;
23129;SDS011;11734;51.046;13.778;2023-12-20T14:36:50;3.77;;;1.70;;
23129;SDS011;11734;51.046;13.778;2023-12-20T14:39:19;2.50;;;1.67;;
23129;SDS011;11734;51.046;13.778;2023-12-20T14:41:46;2.00;;;1.50;;
23129;SDS011;11734;51.046;13.778;2023-12-20T14:44:13;2.47;;;1.33;;
23129;SDS011;11734;51.046;13.778;2023-12-20T14:46:41;2.43;;;1.60;;